createdAt,value
2018-06-04T00:00:24.883Z,99.90
2018-06-04T00:02:54.687Z,99.90
2018-06-04T00:05:26.843Z,99.90
2018-06-04T00:07:56.354Z,99.90
2018-06-04T00:10:26.879Z,99.90
2018-06-04T00:12:58.611Z,99.90
2018-06-04T00:15:28.883Z,99.90
2018-06-04T00:17:58.847Z,99.90
2018-06-04T00:20:29.033Z,99.90
2018-06-04T00:22:59.462Z,99.90
2018-06-04T00:25:29.491Z,99.90
2018-06-04T00:28:00.362Z,99.90
2018-06-04T00:30:29.939Z,99.90
2018-06-04T00:33:00.687Z,99.90
2018-06-04T00:35:30.800Z,99.90
2018-06-04T00:38:01.767Z,99.90
2018-06-04T00:40:32.587Z,99.90
2018-06-04T00:43:02.503Z,99.90
2018-06-04T00:45:32.294Z,99.90
2018-06-04T00:48:02.631Z,99.90
2018-06-04T00:50:32.325Z,99.90
2018-06-04T00:53:02.208Z,99.90
2018-06-04T00:56:40.195Z,99.90
2018-06-04T00:59:10.612Z,99.90
2018-06-04T01:01:41.274Z,99.90
2018-06-04T01:04:12.711Z,99.90
2018-06-04T01:06:42.719Z,99.90
2018-06-04T01:09:13.915Z,99.90
2018-06-04T01:11:44.758Z,99.90
2018-06-04T01:14:14.768Z,99.90
2018-06-04T01:16:45.315Z,99.90
2018-06-04T01:19:16.433Z,99.90
2018-06-04T01:21:46.763Z,99.90
2018-06-04T01:24:16.527Z,99.90
2018-06-04T01:26:46.682Z,99.90
2018-06-04T01:29:18.079Z,99.90
2018-06-04T01:31:48.874Z,99.90
2018-06-04T01:34:19.399Z,99.90
2018-06-04T01:36:49.215Z,99.90
2018-06-04T01:39:20.047Z,99.90
2018-06-04T01:44:19.585Z,99.90
2018-06-04T01:46:49.887Z,99.90
2018-06-04T01:49:19.759Z,99.90
2018-06-04T01:51:50.155Z,99.90
2018-06-04T01:54:21.731Z,99.90
2018-06-04T01:56:51.252Z,99.90
2018-06-04T01:59:20.965Z,99.90
2018-06-04T02:01:51.595Z,99.90
2018-06-04T02:04:22.062Z,99.90
2018-06-04T02:06:53.110Z,99.90
2018-06-04T02:09:23.150Z,99.90
2018-06-04T02:11:54.967Z,99.90
2018-06-04T02:14:25.205Z,99.90
2018-06-04T02:19:25.572Z,99.90
2018-06-04T02:21:55.766Z,99.90
2018-06-04T02:24:26.373Z,99.90
2018-06-04T02:26:56.756Z,99.90
2018-06-04T02:29:26.149Z,99.90
2018-06-04T02:31:56.031Z,99.90
2018-06-04T02:34:27.147Z,99.90
2018-06-04T02:36:57.598Z,99.90
2018-06-04T02:39:27.447Z,99.90
2018-06-04T02:41:58.688Z,99.90
2018-06-04T02:44:30.794Z,99.90
2018-06-04T02:47:02.007Z,99.90
2018-06-04T02:49:31.568Z,99.90
2018-06-04T02:52:02.919Z,99.90
2018-06-04T02:54:33.767Z,99.90
2018-06-04T02:57:03.283Z,99.90
2018-06-04T02:59:32.898Z,99.90
2018-06-04T03:02:03.499Z,99.90
2018-06-04T03:04:34.088Z,99.90
2018-06-04T03:07:04.428Z,99.90
2018-06-04T03:09:34.589Z,99.90
2018-06-04T03:12:03.835Z,99.90
2018-06-04T03:14:34.809Z,99.90
2018-06-04T03:17:04.567Z,99.90
2018-06-04T03:19:34.407Z,99.90
2018-06-04T03:22:04.773Z,99.90
2018-06-04T03:24:34.629Z,99.90
2018-06-04T03:27:04.631Z,99.90
2018-06-04T03:29:34.529Z,99.90
2018-06-04T03:32:04.621Z,99.90
2018-06-04T03:34:35.099Z,99.90
2018-06-04T03:37:04.667Z,99.90
2018-06-04T03:39:35.139Z,99.90
2018-06-04T03:42:04.946Z,99.90
2018-06-04T03:44:35.572Z,99.90
2018-06-04T03:47:05.351Z,99.90
2018-06-04T03:49:36.939Z,99.90
2018-06-04T03:52:06.815Z,99.90
2018-06-04T03:54:36.950Z,99.90
2018-06-04T03:57:06.847Z,99.90
2018-06-04T03:59:36.434Z,99.90
2018-06-04T04:02:06.394Z,99.90
2018-06-04T04:04:37.572Z,99.90
2018-06-04T04:07:07.435Z,99.90
2018-06-04T04:09:38.167Z,99.90
2018-06-04T04:12:08.802Z,99.90
2018-06-04T04:14:39.519Z,99.90
2018-06-04T04:17:10.418Z,99.90
2018-06-04T04:19:40.927Z,99.90
2018-06-04T04:22:10.268Z,99.90
2018-06-04T04:24:39.798Z,99.90
2018-06-04T04:27:09.334Z,99.90
2018-06-04T04:29:38.835Z,99.90
2018-06-04T04:32:08.408Z,99.90
2018-06-04T04:34:38.239Z,99.90
2018-06-04T04:37:08.884Z,99.90
2018-06-04T04:39:38.855Z,99.90
2018-06-04T04:42:08.357Z,99.90
2018-06-04T04:44:38.345Z,99.90
2018-06-04T04:47:08.541Z,99.90
2018-06-04T04:49:39.479Z,99.90
2018-06-04T04:52:09.919Z,99.90
2018-06-04T04:54:40.010Z,99.90
2018-06-04T04:57:10.167Z,99.90
2018-06-04T04:59:40.136Z,99.90
2018-06-04T05:02:09.574Z,99.90
2018-06-04T05:07:10.283Z,99.90
2018-06-04T05:12:12.215Z,99.90
2018-06-04T05:14:42.322Z,99.90
2018-06-04T05:17:14.018Z,99.90
2018-06-04T05:19:44.758Z,99.90
2018-06-04T05:22:15.087Z,99.90
2018-06-04T05:24:46.394Z,99.90
2018-06-04T05:27:16.530Z,99.90
2018-06-04T05:29:47.288Z,99.90
2018-06-04T05:32:18.483Z,99.90
2018-06-04T05:34:48.882Z,99.90
2018-06-04T05:37:18.510Z,99.90
2018-06-04T05:39:49.564Z,99.90
2018-06-04T05:42:19.460Z,99.90
2018-06-04T05:44:50.277Z,99.90
2018-06-04T05:47:20.576Z,99.90
2018-06-04T05:49:51.548Z,99.90
2018-06-04T05:52:21.190Z,99.90
2018-06-04T05:54:51.065Z,99.90
2018-06-04T05:57:21.420Z,99.90
2018-06-04T05:59:51.199Z,99.90
2018-06-04T06:02:21.799Z,99.90
2018-06-04T06:04:52.031Z,99.90
2018-06-04T06:07:22.019Z,99.90
2018-06-04T06:09:52.635Z,99.90
2018-06-04T06:12:21.815Z,99.90
2018-06-04T06:14:52.179Z,99.90
2018-06-04T06:17:22.880Z,99.90
2018-06-04T06:19:53.757Z,99.90
2018-06-04T06:22:24.368Z,99.90
2018-06-04T06:24:54.953Z,99.90
2018-06-04T06:27:25.547Z,99.90
2018-06-04T06:29:56.120Z,99.90
2018-06-04T06:32:26.130Z,99.90
2018-06-04T06:34:55.679Z,99.90
2018-06-04T06:37:25.099Z,99.90
2018-06-04T06:39:55.014Z,99.90
2018-06-04T06:42:24.619Z,99.90
2018-06-04T06:44:54.941Z,99.90
2018-06-04T06:47:25.067Z,99.90
2018-06-04T06:49:56.610Z,99.70
2018-06-04T06:52:26.433Z,98.80
2018-06-04T06:54:56.822Z,99.20
2018-06-04T06:57:27.135Z,98.80
2018-06-04T06:59:56.799Z,99.00
2018-06-04T07:02:27.023Z,99.80
2018-06-04T07:04:56.342Z,98.30
2018-06-04T07:07:27.841Z,98.60
2018-06-04T07:09:58.278Z,97.90
2018-06-04T07:12:29.196Z,97.30
2018-06-04T07:14:59.783Z,97.40
2018-06-04T07:17:30.114Z,97.30
2018-06-04T07:20:00.254Z,97.70
2018-06-04T07:22:30.954Z,96.90
2018-06-04T07:25:01.268Z,96.50
2018-06-04T07:27:30.767Z,96.70
2018-06-04T07:30:00.398Z,95.60
2018-06-04T07:32:30.309Z,96.30
2018-06-04T07:35:01.927Z,94.80
2018-06-04T07:37:31.853Z,95.00
2018-06-04T07:40:02.402Z,94.30
2018-06-04T07:42:33.146Z,93.50
2018-06-04T07:45:03.454Z,93.60
2018-06-04T07:47:34.397Z,93.30
2018-06-04T07:50:06.035Z,93.60
2018-06-04T07:52:36.794Z,92.20
2018-06-04T07:55:06.490Z,93.30
2018-06-04T07:57:37.022Z,92.80
2018-06-04T08:00:07.644Z,93.90
2018-06-04T08:02:37.789Z,92.10
2018-06-04T08:05:08.175Z,92.30
2018-06-04T08:07:38.393Z,91.50
2018-06-04T08:10:08.963Z,90.60
2018-06-04T08:12:38.826Z,90.90
2018-06-04T08:15:08.947Z,91.60
2018-06-04T08:35:42.467Z,84.70
2018-06-04T08:38:18.010Z,83.00
2018-06-04T08:40:53.389Z,85.60
2018-06-04T08:43:29.311Z,78.30
2018-06-04T08:46:05.898Z,80.70
2018-06-04T08:48:42.380Z,81.10
2018-06-04T08:51:18.067Z,81.60
2018-06-04T08:53:54.360Z,81.00
2018-06-04T08:56:29.248Z,81.20
2018-06-04T08:59:04.351Z,82.40
2018-06-04T09:01:40.155Z,81.80
2018-06-04T09:04:16.321Z,80.10
2018-06-04T09:09:27.597Z,78.80
2018-06-04T09:12:02.902Z,78.40
2018-06-04T09:14:38.436Z,78.50
2018-06-04T09:17:13.514Z,80.10
2018-06-04T09:19:50.849Z,77.00
2018-06-04T09:22:25.510Z,74.70
2018-06-04T09:25:02.235Z,77.70
2018-06-04T09:27:38.404Z,75.90
2018-06-04T09:30:14.258Z,74.20
2018-06-04T09:32:49.123Z,76.50
2018-06-04T09:35:24.527Z,79.70
2018-06-04T09:37:59.886Z,73.60
2018-06-04T09:40:34.863Z,71.50
2018-06-04T09:43:10.543Z,70.20
2018-06-04T09:45:46.051Z,72.40
2018-06-04T09:48:22.559Z,73.30
2018-06-04T09:50:58.703Z,70.10
2018-06-04T09:53:33.842Z,70.30
2018-06-04T09:56:10.219Z,67.50
2018-06-04T09:58:45.578Z,67.70
2018-06-04T10:01:21.195Z,72.40
2018-06-04T10:03:57.486Z,72.50
2018-06-04T10:06:32.672Z,72.60
2018-06-04T10:09:09.099Z,72.70
2018-06-04T10:11:44.995Z,71.70
2018-06-04T10:14:20.184Z,72.60
2018-06-04T10:16:54.867Z,73.10
2018-06-04T10:19:30.398Z,70.30
2018-06-04T10:22:06.923Z,69.10
2018-06-04T10:24:42.843Z,70.40
2018-06-04T10:27:18.774Z,66.40
2018-06-04T10:29:54.094Z,69.10
2018-06-04T10:32:28.590Z,68.30
2018-06-04T10:35:05.245Z,67.60
2018-06-04T10:37:41.119Z,66.80
2018-06-04T10:40:16.465Z,68.10
2018-06-04T10:42:52.291Z,70.00
2018-06-04T10:45:28.838Z,70.30
2018-06-04T10:48:04.416Z,70.30
2018-06-04T10:50:40.427Z,70.70
2018-06-04T10:58:24.910Z,65.40
2018-06-04T11:00:59.794Z,67.30
2018-06-04T11:03:34.925Z,63.20
2018-06-04T11:06:10.032Z,64.20
2018-06-04T11:08:45.230Z,65.40
2018-06-04T11:11:21.435Z,64.80
2018-06-04T11:13:57.322Z,64.20
2018-06-04T11:16:31.895Z,63.10
2018-06-04T11:19:07.960Z,61.50
2018-06-04T11:21:43.386Z,60.60
2018-06-04T11:24:18.935Z,59.70
2018-06-04T11:26:54.991Z,58.70
2018-06-04T11:29:31.091Z,58.10
2018-06-04T11:32:06.590Z,57.80
2018-06-04T11:34:42.218Z,58.20
2018-06-04T11:37:17.465Z,59.20
2018-06-04T11:39:53.619Z,56.60
2018-06-04T11:42:30.053Z,58.80
2018-06-04T11:45:05.771Z,57.70
2018-06-04T11:47:40.595Z,60.50
2018-06-04T11:50:16.443Z,58.80
2018-06-04T11:52:52.139Z,57.90
2018-06-04T11:55:27.490Z,58.10
2018-06-04T11:58:02.184Z,59.60
2018-06-04T12:00:37.086Z,61.40
2018-06-04T12:03:12.808Z,64.30
2018-06-04T12:05:48.033Z,65.50
2018-06-04T12:08:23.332Z,65.50
2018-06-04T12:10:58.306Z,63.20
2018-06-04T12:13:33.494Z,62.50
2018-06-04T12:16:09.067Z,63.60
2018-06-04T12:18:45.206Z,62.50
2018-06-04T12:21:21.671Z,63.30
2018-06-04T12:23:56.994Z,63.10
2018-06-04T12:26:32.490Z,61.80
2018-06-04T12:29:07.773Z,61.30
2018-06-04T12:31:43.151Z,61.40
2018-06-04T12:34:18.445Z,62.30
2018-06-04T12:36:53.919Z,62.60
2018-06-04T12:39:29.095Z,60.00
2018-06-04T12:42:04.295Z,60.80
2018-06-04T12:44:40.143Z,59.70
2018-06-04T12:47:15.847Z,60.50
2018-06-04T12:49:52.166Z,58.30
2018-06-04T12:52:28.230Z,58.70
2018-06-04T12:55:04.640Z,59.80
2018-06-04T12:57:40.164Z,60.90
2018-06-04T13:00:14.713Z,62.80
2018-06-04T13:02:49.934Z,61.10
2018-06-04T13:05:25.918Z,62.10
2018-06-04T13:08:01.738Z,62.00
2018-06-04T13:10:37.431Z,64.40
2018-06-04T13:13:12.922Z,64.20
2018-06-04T13:15:52.795Z,64.90
2018-06-04T13:18:28.064Z,67.30
2018-06-04T13:21:03.287Z,66.20
2018-06-04T13:23:38.479Z,64.90
2018-06-04T13:26:13.394Z,65.80
2018-06-04T13:28:48.035Z,63.10
2018-06-04T13:31:22.809Z,63.30
2018-06-04T13:33:58.146Z,63.60
2018-06-04T13:36:32.654Z,63.90
2018-06-04T13:39:09.230Z,65.40
2018-06-04T13:41:45.286Z,62.20
2018-06-04T13:44:20.298Z,59.50
2018-06-04T13:46:55.330Z,58.30
2018-06-04T13:49:30.214Z,59.20
2018-06-04T13:52:05.430Z,58.80
2018-06-04T13:54:40.526Z,62.00
2018-06-04T13:57:15.522Z,62.30
2018-06-04T13:59:51.082Z,62.70
2018-06-04T14:02:27.422Z,63.90
2018-06-04T14:05:03.774Z,61.40
2018-06-04T14:07:39.123Z,59.60
2018-06-04T14:10:13.919Z,60.00
2018-06-04T14:12:49.239Z,59.90
2018-06-04T14:15:24.494Z,58.80
2018-06-04T14:18:00.112Z,60.00
2018-06-04T14:20:35.466Z,58.50
2018-06-04T14:23:10.210Z,58.70
2018-06-04T14:25:45.338Z,57.50
2018-06-04T14:28:21.414Z,57.20
2018-06-04T14:30:56.138Z,58.10
2018-06-04T14:33:32.294Z,60.30
2018-06-04T14:36:08.866Z,60.30
2018-06-04T14:38:44.546Z,59.30
2018-06-04T14:41:20.474Z,60.10
2018-06-04T14:43:56.330Z,60.00
2018-06-04T14:46:31.372Z,59.20
2018-06-04T14:49:06.746Z,59.30
2018-06-04T14:51:42.143Z,57.50
2018-06-04T14:54:18.106Z,58.00
2018-06-04T14:56:54.114Z,55.70
2018-06-04T14:59:29.467Z,54.80
2018-06-04T15:02:05.662Z,55.30
2018-06-04T15:04:41.006Z,55.70
2018-06-04T15:07:17.248Z,56.80
2018-06-04T15:09:52.314Z,55.50
2018-06-04T15:12:26.878Z,54.50
2018-06-04T15:15:01.684Z,50.80
2018-06-04T15:17:37.925Z,51.00
2018-06-04T15:20:13.979Z,51.00
2018-06-04T15:25:24.276Z,49.10
2018-06-04T15:27:59.409Z,48.90
2018-06-04T15:30:35.809Z,49.20
2018-06-04T15:33:11.522Z,48.20
2018-06-04T15:35:47.258Z,48.00
2018-06-04T15:38:23.746Z,46.30
2018-06-04T15:40:59.358Z,48.50
2018-06-04T15:43:35.555Z,48.60
2018-06-04T15:46:10.065Z,47.20
2018-06-04T15:48:45.150Z,47.00
2018-06-04T15:51:20.360Z,46.80
2018-06-04T15:53:56.207Z,48.30
2018-06-04T15:56:31.563Z,46.20
2018-06-04T15:59:06.282Z,44.80
2018-06-04T16:01:41.306Z,44.90
2018-06-04T16:04:17.143Z,45.00
2018-06-04T16:06:52.850Z,46.20
2018-06-04T16:09:28.512Z,45.20
2018-06-04T16:12:03.283Z,47.70
2018-06-04T16:14:39.018Z,47.30
2018-06-04T16:17:14.196Z,48.00
2018-06-04T16:19:50.100Z,48.40
2018-06-04T16:22:25.842Z,48.60
2018-06-04T16:25:01.819Z,48.20
2018-06-04T16:27:37.278Z,46.70
2018-06-04T16:30:13.670Z,47.80
2018-06-04T16:32:49.096Z,47.60
2018-06-04T16:35:24.542Z,48.40
2018-06-04T16:37:59.821Z,47.30
2018-06-04T16:40:35.335Z,46.80
2018-06-04T16:43:11.138Z,46.60
2018-06-04T16:45:46.679Z,46.30
2018-06-04T16:48:22.442Z,47.10
2018-06-04T16:50:58.126Z,47.50
2018-06-04T16:53:34.926Z,47.40
2018-06-04T16:56:10.457Z,50.00
2018-06-04T16:58:45.430Z,50.90
2018-06-04T17:01:21.223Z,50.40
2018-06-04T17:03:57.102Z,52.30
2018-06-04T17:06:32.846Z,53.20
2018-06-04T17:09:08.151Z,55.00
2018-06-04T17:11:43.689Z,56.50
2018-06-04T17:14:18.973Z,58.00
2018-06-04T17:16:53.887Z,58.40
2018-06-04T17:22:03.682Z,60.00
2018-06-04T17:24:39.852Z,60.80
2018-06-04T17:27:15.895Z,60.70
2018-06-04T17:29:51.790Z,62.80
2018-06-04T17:32:28.126Z,64.30
2018-06-04T17:35:04.339Z,65.40
2018-06-04T17:37:39.765Z,65.90
2018-06-04T17:40:14.187Z,65.90
2018-06-04T17:42:49.593Z,66.70
2018-06-04T17:45:26.214Z,66.90
2018-06-04T17:48:02.779Z,67.10
2018-06-04T17:50:37.834Z,67.40
2018-06-04T17:53:13.841Z,68.40
2018-06-04T17:55:49.369Z,69.20
2018-06-04T17:58:24.330Z,69.50
2018-06-04T18:00:59.719Z,68.80
2018-06-04T18:06:10.515Z,67.90
2018-06-04T18:08:46.882Z,68.50
2018-06-04T18:11:22.404Z,69.20
2018-06-04T18:13:57.130Z,71.10
2018-06-04T18:16:32.774Z,71.00
2018-06-04T18:19:08.414Z,71.80
2018-06-04T18:21:43.140Z,72.90
2018-06-04T18:24:18.886Z,73.10
2018-06-04T18:26:54.296Z,74.00
2018-06-04T18:29:29.233Z,74.80
2018-06-04T18:32:03.877Z,75.40
2018-06-04T18:34:39.551Z,76.10
2018-06-04T18:37:14.979Z,76.10
2018-06-04T18:39:50.716Z,76.50
2018-06-04T18:42:25.774Z,77.40
2018-06-04T18:45:01.706Z,76.30
2018-06-04T18:47:37.885Z,75.60
2018-06-04T18:50:12.902Z,76.10
2018-06-04T18:52:49.170Z,75.60
2018-06-04T18:55:25.007Z,76.80
2018-06-04T18:58:00.437Z,77.50
2018-06-04T19:00:35.451Z,78.70
2018-06-04T19:03:11.210Z,79.20
2018-06-04T19:05:46.732Z,81.10
2018-06-04T19:08:22.041Z,81.60
2018-06-04T19:10:57.201Z,82.70
2018-06-04T19:13:32.049Z,84.60
2018-06-04T19:16:08.890Z,84.70
2018-06-04T19:18:43.828Z,84.90
2018-06-04T19:21:19.978Z,85.50
2018-06-04T19:23:55.923Z,88.00
2018-06-04T19:26:32.571Z,88.50
2018-06-04T19:29:07.913Z,88.90
2018-06-04T19:31:43.046Z,89.30
2018-06-04T19:34:18.422Z,90.00
2018-06-04T19:36:54.065Z,90.50
2018-06-04T19:39:29.272Z,91.00
2018-06-04T19:42:05.462Z,91.20
2018-06-04T19:44:40.397Z,91.50
2018-06-04T19:47:16.059Z,92.00
2018-06-04T19:49:51.354Z,92.60
2018-06-04T19:52:26.374Z,93.00
2018-06-04T19:55:01.787Z,93.20
2018-06-04T20:00:13.886Z,93.80
2018-06-04T20:02:48.986Z,94.70
2018-06-04T20:05:25.078Z,94.80
2018-06-04T20:07:59.511Z,94.90
2018-06-04T20:10:35.974Z,95.30
2018-06-04T20:13:11.750Z,95.60
2018-06-04T20:15:48.102Z,95.70
2018-06-04T20:18:24.618Z,95.60
2018-06-04T20:21:00.255Z,95.50
2018-06-04T20:23:35.607Z,95.80
2018-06-04T20:26:11.101Z,95.90
2018-06-04T20:28:47.252Z,96.20
2018-06-04T20:31:22.707Z,96.30
2018-06-04T20:33:58.662Z,96.30
2018-06-04T20:36:33.642Z,96.50
2018-06-04T20:39:09.794Z,96.80
2018-06-04T20:41:47.002Z,97.20
2018-06-04T20:44:22.383Z,97.60
2018-06-04T20:46:58.202Z,97.80
2018-06-04T20:49:34.269Z,97.90
2018-06-04T20:52:09.340Z,98.30
2018-06-04T20:54:44.360Z,98.40
2018-06-04T20:57:20.375Z,98.40
2018-06-04T20:59:56.758Z,98.40
2018-06-04T21:02:32.715Z,98.90
2018-06-04T21:05:08.958Z,99.20
2018-06-04T21:07:44.658Z,99.50
2018-06-04T21:10:20.228Z,99.90
2018-06-04T21:12:55.186Z,99.70
2018-06-04T21:15:29.917Z,99.90
2018-06-04T21:18:06.760Z,99.90
2018-06-04T21:20:42.606Z,99.90
2018-06-04T21:23:18.651Z,99.90
2018-06-04T21:25:53.426Z,99.90
2018-06-04T21:28:29.208Z,99.90
2018-06-04T21:31:04.940Z,99.90
2018-06-04T21:33:40.786Z,99.90
2018-06-04T21:36:16.301Z,99.90
2018-06-04T21:38:51.182Z,99.90
2018-06-04T21:41:25.849Z,99.90
2018-06-04T21:44:01.166Z,99.90
2018-06-04T21:46:36.590Z,99.90
2018-06-04T21:49:14.979Z,99.90
2018-06-04T21:51:50.862Z,99.90
2018-06-04T21:54:25.950Z,99.90
2018-06-04T21:57:01.945Z,99.90
2018-06-04T21:59:37.271Z,99.90
2018-06-04T22:02:12.230Z,99.90
2018-06-04T22:04:47.837Z,99.90
2018-06-04T22:07:23.566Z,99.90
2018-06-04T22:09:59.566Z,99.90
2018-06-04T22:12:34.202Z,99.90
2018-06-04T22:15:08.949Z,99.90
2018-06-04T22:17:45.194Z,99.90
2018-06-04T22:20:19.896Z,99.90
2018-06-04T22:22:56.028Z,99.90
2018-06-04T22:25:31.657Z,99.90
2018-06-04T22:28:07.542Z,99.90
2018-06-04T22:33:19.591Z,99.90
2018-06-04T22:35:55.228Z,99.90
2018-06-04T22:38:30.730Z,99.90
2018-06-04T22:41:05.302Z,99.90
2018-06-04T22:43:40.859Z,99.90
2018-06-04T22:46:16.222Z,99.90
2018-06-04T22:48:51.786Z,99.90
2018-06-04T22:51:28.356Z,99.90
2018-06-04T22:54:03.792Z,99.90
2018-06-04T22:56:39.103Z,99.90
2018-06-04T22:59:15.846Z,99.90
2018-06-04T23:01:51.895Z,99.90
2018-06-04T23:04:26.665Z,99.90
2018-06-04T23:07:02.091Z,99.90
2018-06-04T23:09:37.782Z,99.90
2018-06-04T23:12:14.136Z,99.90
2018-06-04T23:14:49.846Z,99.90
2018-06-04T23:17:25.791Z,99.90
2018-06-04T23:20:01.382Z,99.90
2018-06-04T23:22:36.594Z,99.90
2018-06-04T23:25:12.274Z,99.90
2018-06-04T23:27:47.792Z,99.90
2018-06-04T23:30:24.246Z,99.90
2018-06-04T23:32:59.130Z,99.90
2018-06-04T23:35:34.667Z,99.90
2018-06-04T23:38:09.887Z,99.90
2018-06-04T23:40:46.174Z,99.90
2018-06-04T23:43:21.171Z,99.90
2018-06-04T23:45:58.014Z,99.90
2018-06-04T23:48:32.962Z,99.90
2018-06-04T23:51:08.722Z,99.90
2018-06-04T23:53:44.834Z,99.90
2018-06-04T23:56:21.182Z,99.90
2018-06-04T23:58:56.514Z,99.90
